Date,TemperatureHighF,TemperatureAvgF,TemperatureLowF,DewpointHighF,DewpointAvgF,DewpointLowF,HumidityHigh,HumidityAvg,HumidityLow,PressureMaxIn,PressureMinIn,WindSpeedMaxMPH,WindSpeedAvgMPH,GustSpeedMaxMPH,PrecipitationSumIn
2012-12-1,57.1,46.2,35.1,47.1,40.3,32.4,95,80,65,30.31,30.18,14,2,15,0.00
2012-12-2,54.1,52.5,49.3,54.0,50.0,43.8,100,91,78,30.19,30.01,21,4,21,0.29
2012-12-3,59.9,56.1,53.3,58.9,55.8,53.3,100,99,96,30.19,30.09,10,2,10,0.00
2012-12-4,60.1,53.8,41.0,57.8,51.7,40.8,99,92,82,30.13,29.94,19,4,20,0.53
2012-12-5,41.1,35.2,27.8,40.9,31.2,24.4,100,85,66,30.40,30.12,16,2,16,0.00
2012-12-6,45.9,33.8,23.6,33.5,28.0,22.6,99,80,53,30.37,30.04,10,1,10,0.00
2012-12-7,47.3,44.5,39.2,47.0,43.9,33.5,100,98,78,30.04,29.87,9,1,9,0.65
2012-12-8,52.6,47.4,37.6,50.7,46.4,35.8,100,96,89,30.11,29.81,13,3,15,0.04
2012-12-9,56.1,43.0,36.1,56.0,41.4,33.8,100,94,87,30.15,29.69,14,3,14,0.23
2012-12-10,56.3,44.4,33.7,56.3,44.0,33.1,100,98,93,29.84,29.60,16,3,16,0.62
2012-12-11,36.6,33.2,29.0,33.2,29.9,24.8,99,88,74,30.25,29.84,12,2,12,0.00
2012-12-12,30.0,26.8,24.3,26.8,24.9,23.4,99,92,84,30.47,30.25,5,0,5,0.00
2012-12-13,44.5,30.7,20.2,30.1,24.5,20.0,100,80,47,30.47,30.30,10,1,10,0.00
2012-12-14,48.4,36.5,28.6,35.0,29.4,23.9,90,76,54,30.32,30.23,7,1,10,0.00
2012-12-15,47.5,40.3,31.5,39.3,32.6,28.3,90,74,54,30.23,29.85,11,1,12,0.02
2012-12-16,57.2,52.6,47.2,53.3,48.1,39.2,98,84,72,29.85,29.66,17,3,19,0.13
2012-12-17,51.1,46.0,42.0,50.6,45.2,41.8,100,97,90,29.74,29.52,10,0,10,0.11
2012-12-18,41.9,38.2,35.5,41.9,35.2,30.6,100,89,67,29.83,29.52,15,3,16,0.15
2012-12-19,41.5,38.7,32.9,38.9,36.5,32.1,98,92,83,30.16,29.76,19,1,20,0.01
2012-12-20,48.7,41.2,34.0,45.7,38.2,30.8,98,89,72,30.14,29.33,31,6,31,0.48
2012-12-21,37.3,30.9,28.8,31.6,28.9,27.2,98,92,76,29.80,29.33,29,8,29,0.00
2012-12-22,30.9,29.0,21.9,28.0,24.5,19.9,92,83,77,30.14,29.80,28,5,29,0.00
2012-12-23,36.4,25.9,19.2,28.0,22.9,18.5,98,89,69,30.09,29.95,11,1,11,0.00
2012-12-24,35.8,28.9,20.0,32.0,27.3,19.6,99,94,81,30.05,29.81,10,1,10,0.00
2012-12-25,33.7,32.2,30.7,32.2,29.5,26.9,100,89,80,30.25,29.95,12,2,12,0.00
2012-12-26,31.9,28.3,26.4,27.4,26.3,24.6,100,92,81,30.23,29.65,24,6,24,0.00
2012-12-27,31.8,28.7,26.6,30.8,27.7,24.3,100,96,89,30.18,29.71,14,3,16,0.00
2012-12-28,32.0,26.7,23.9,26.4,23.6,22.2,93,88,77,30.21,29.93,10,1,10,0.00
2012-12-29,32.6,28.1,24.9,30.7,26.9,23.6,99,95,87,30.04,29.74,13,2,14,0.00
2012-12-30,27.1,23.5,19.0,26.2,21.4,17.4,96,91,88,30.40,30.04,18,3,18,0.00
2012-12-31,31.7,26.7,18.9,30.5,24.7,17.8,98,92,78,30.34,30.06,20,4,20,0.00